sensor_id;sensor_type;location;lat;lon;timestamp;temperature;humidity
32394;DHT22;18853;45.426;9.206;2022-12-18T00:00:42;11.60;67.00
32394;DHT22;18853;45.426;9.206;2022-12-18T00:03:09;11.60;66.80
32394;DHT22;18853;45.426;9.206;2022-12-18T00:05:35;11.60;66.90
32394;DHT22;18853;45.426;9.206;2022-12-18T00:08:01;11.70;66.90
32394;DHT22;18853;45.426;9.206;2022-12-18T00:10:27;11.60;66.60
32394;DHT22;18853;45.426;9.206;2022-12-18T00:12:53;11.70;66.70
32394;DHT22;18853;45.426;9.206;2022-12-18T00:15:19;11.60;66.80
32394;DHT22;18853;45.426;9.206;2022-12-18T00:17:45;11.60;66.90
32394;DHT22;18853;45.426;9.206;2022-12-18T00:20:11;11.60;66.90
32394;DHT22;18853;45.426;9.206;2022-12-18T00:22:36;11.60;66.90
32394;DHT22;18853;45.426;9.206;2022-12-18T00:25:02;11.60;66.90
32394;DHT22;18853;45.426;9.206;2022-12-18T00:27:28;11.60;67.00
32394;DHT22;18853;45.426;9.206;2022-12-18T00:29:53;11.60;67.70
32394;DHT22;18853;45.426;9.206;2022-12-18T00:32:19;11.60;66.60
32394;DHT22;18853;45.426;9.206;2022-12-18T00:34:45;11.60;66.20
32394;DHT22;18853;45.426;9.206;2022-12-18T00:37:10;11.60;66.50
32394;DHT22;18853;45.426;9.206;2022-12-18T00:39:36;11.60;66.60
32394;DHT22;18853;45.426;9.206;2022-12-18T00:42:02;11.50;66.90
32394;DHT22;18853;45.426;9.206;2022-12-18T00:44:46;11.50;67.00
32394;DHT22;18853;45.426;9.206;2022-12-18T00:47:12;11.40;66.90
32394;DHT22;18853;45.426;9.206;2022-12-18T00:49:37;11.50;66.90
32394;DHT22;18853;45.426;9.206;2022-12-18T00:52:03;11.40;66.70
32394;DHT22;18853;45.426;9.206;2022-12-18T00:54:28;11.40;66.60
32394;DHT22;18853;45.426;9.206;2022-12-18T00:56:54;11.40;66.70
32394;DHT22;18853;45.426;9.206;2022-12-18T00:59:20;11.40;66.70
32394;DHT22;18853;45.426;9.206;2022-12-18T01:01:46;11.30;66.80
32394;DHT22;18853;45.426;9.206;2022-12-18T01:04:12;11.30;66.80
32394;DHT22;18853;45.426;9.206;2022-12-18T01:06:38;11.30;66.60
32394;DHT22;18853;45.426;9.206;2022-12-18T01:09:04;11.30;66.40
32394;DHT22;18853;45.426;9.206;2022-12-18T01:11:30;11.30;66.40
32394;DHT22;18853;45.426;9.206;2022-12-18T01:13:55;11.20;66.50
32394;DHT22;18853;45.426;9.206;2022-12-18T01:16:22;11.30;66.60
32394;DHT22;18853;45.426;9.206;2022-12-18T01:18:51;11.30;66.50
32394;DHT22;18853;45.426;9.206;2022-12-18T01:21:17;11.30;66.40
32394;DHT22;18853;45.426;9.206;2022-12-18T01:23:46;11.20;66.40
32394;DHT22;18853;45.426;9.206;2022-12-18T01:26:13;11.20;66.20
32394;DHT22;18853;45.426;9.206;2022-12-18T01:28:40;11.20;65.90
32394;DHT22;18853;45.426;9.206;2022-12-18T01:31:20;11.20;65.80
32394;DHT22;18853;45.426;9.206;2022-12-18T01:33:46;11.20;65.40
32394;DHT22;18853;45.426;9.206;2022-12-18T01:36:16;11.20;65.50
32394;DHT22;18853;45.426;9.206;2022-12-18T01:38:43;11.20;65.40
32394;DHT22;18853;45.426;9.206;2022-12-18T01:41:09;11.10;65.30
32394;DHT22;18853;45.426;9.206;2022-12-18T01:44:01;11.00;65.20
32394;DHT22;18853;45.426;9.206;2022-12-18T01:49:01;11.00;65.30
32394;DHT22;18853;45.426;9.206;2022-12-18T01:51:28;11.00;65.30
32394;DHT22;18853;45.426;9.206;2022-12-18T01:53:55;11.00;65.20
32394;DHT22;18853;45.426;9.206;2022-12-18T01:56:21;11.00;65.10
32394;DHT22;18853;45.426;9.206;2022-12-18T01:59:05;10.90;65.40
32394;DHT22;18853;45.426;9.206;2022-12-18T02:01:33;10.90;64.80
32394;DHT22;18853;45.426;9.206;2022-12-18T02:04:21;10.80;65.30
32394;DHT22;18853;45.426;9.206;2022-12-18T02:09:42;10.80;65.40
32394;DHT22;18853;45.426;9.206;2022-12-18T02:15:00;10.80;65.20
32394;DHT22;18853;45.426;9.206;2022-12-18T02:17:50;10.80;65.30
32394;DHT22;18853;45.426;9.206;2022-12-18T02:20:20;10.80;65.40
32394;DHT22;18853;45.426;9.206;2022-12-18T02:25:58;10.70;65.50
32394;DHT22;18853;45.426;9.206;2022-12-18T02:28:31;10.70;65.70
32394;DHT22;18853;45.426;9.206;2022-12-18T02:31:01;10.70;65.80
32394;DHT22;18853;45.426;9.206;2022-12-18T02:33:27;10.70;65.60
32394;DHT22;18853;45.426;9.206;2022-12-18T02:35:55;10.70;65.70
32394;DHT22;18853;45.426;9.206;2022-12-18T02:38:23;10.70;65.30
32394;DHT22;18853;45.426;9.206;2022-12-18T02:40:51;10.80;64.90
32394;DHT22;18853;45.426;9.206;2022-12-18T02:43:19;10.80;64.80
32394;DHT22;18853;45.426;9.206;2022-12-18T02:46:30;10.80;65.00
32394;DHT22;18853;45.426;9.206;2022-12-18T02:57:37;10.80;65.00
32394;DHT22;18853;45.426;9.206;2022-12-18T03:00:14;10.80;64.80
32394;DHT22;18853;45.426;9.206;2022-12-18T03:02:48;10.80;65.00
32394;DHT22;18853;45.426;9.206;2022-12-18T03:05:23;10.80;64.80
32394;DHT22;18853;45.426;9.206;2022-12-18T03:07:57;10.80;64.70
32394;DHT22;18853;45.426;9.206;2022-12-18T03:10:28;10.80;64.90
32394;DHT22;18853;45.426;9.206;2022-12-18T03:13:42;10.80;64.80
32394;DHT22;18853;45.426;9.206;2022-12-18T03:15:50;10.80;65.00
32394;DHT22;18853;45.426;9.206;2022-12-18T03:21:04;10.70;65.30
32394;DHT22;18853;45.426;9.206;2022-12-18T03:23:35;10.60;65.40
32394;DHT22;18853;45.426;9.206;2022-12-18T03:26:07;10.70;65.30
32394;DHT22;18853;45.426;9.206;2022-12-18T03:28:38;10.80;65.20
32394;DHT22;18853;45.426;9.206;2022-12-18T03:31:08;10.70;65.00
32394;DHT22;18853;45.426;9.206;2022-12-18T03:33:38;10.80;65.00
32394;DHT22;18853;45.426;9.206;2022-12-18T03:36:06;10.80;65.10
32394;DHT22;18853;45.426;9.206;2022-12-18T03:38:32;10.70;65.00
32394;DHT22;18853;45.426;9.206;2022-12-18T03:49:11;10.60;65.60
32394;DHT22;18853;45.426;9.206;2022-12-18T03:51:44;10.60;65.60
32394;DHT22;18853;45.426;9.206;2022-12-18T03:54:13;10.60;65.70
32394;DHT22;18853;45.426;9.206;2022-12-18T03:56:43;10.60;65.50
32394;DHT22;18853;45.426;9.206;2022-12-18T03:59:12;10.70;65.30
32394;DHT22;18853;45.426;9.206;2022-12-18T04:01:42;10.70;65.30
32394;DHT22;18853;45.426;9.206;2022-12-18T04:04:13;10.70;65.40
32394;DHT22;18853;45.426;9.206;2022-12-18T04:06:40;10.60;65.20
32394;DHT22;18853;45.426;9.206;2022-12-18T04:09:07;10.60;65.30
32394;DHT22;18853;45.426;9.206;2022-12-18T04:11:33;10.60;65.60
32394;DHT22;18853;45.426;9.206;2022-12-18T04:13:59;10.60;65.50
32394;DHT22;18853;45.426;9.206;2022-12-18T04:16:26;10.60;65.50
32394;DHT22;18853;45.426;9.206;2022-12-18T04:18:52;10.50;65.50
32394;DHT22;18853;45.426;9.206;2022-12-18T04:21:18;10.60;65.60
32394;DHT22;18853;45.426;9.206;2022-12-18T04:23:44;10.50;65.70
32394;DHT22;18853;45.426;9.206;2022-12-18T04:26:10;10.60;65.60
32394;DHT22;18853;45.426;9.206;2022-12-18T04:28:36;10.60;65.50
32394;DHT22;18853;45.426;9.206;2022-12-18T04:31:02;10.60;65.50
32394;DHT22;18853;45.426;9.206;2022-12-18T04:33:28;10.60;65.30
32394;DHT22;18853;45.426;9.206;2022-12-18T04:35:53;10.70;65.20
32394;DHT22;18853;45.426;9.206;2022-12-18T04:38:19;10.60;65.20
32394;DHT22;18853;45.426;9.206;2022-12-18T04:40:45;10.70;65.20
32394;DHT22;18853;45.426;9.206;2022-12-18T04:43:10;10.70;65.10
32394;DHT22;18853;45.426;9.206;2022-12-18T04:45:36;10.70;65.00
32394;DHT22;18853;45.426;9.206;2022-12-18T04:48:03;10.60;65.00
32394;DHT22;18853;45.426;9.206;2022-12-18T04:50:29;10.60;65.10
32394;DHT22;18853;45.426;9.206;2022-12-18T04:52:55;10.60;65.20
32394;DHT22;18853;45.426;9.206;2022-12-18T04:55:21;10.60;65.00
32394;DHT22;18853;45.426;9.206;2022-12-18T04:57:47;10.50;65.20
32394;DHT22;18853;45.426;9.206;2022-12-18T05:00:13;10.50;65.20
32394;DHT22;18853;45.426;9.206;2022-12-18T05:02:38;10.50;65.30
32394;DHT22;18853;45.426;9.206;2022-12-18T05:05:05;10.50;65.10
32394;DHT22;18853;45.426;9.206;2022-12-18T05:07:31;10.60;65.00
32394;DHT22;18853;45.426;9.206;2022-12-18T05:09:56;10.60;65.10
32394;DHT22;18853;45.426;9.206;2022-12-18T05:12:22;10.60;65.00
32394;DHT22;18853;45.426;9.206;2022-12-18T05:14:47;10.60;64.70
32394;DHT22;18853;45.426;9.206;2022-12-18T05:17:13;10.60;64.70
32394;DHT22;18853;45.426;9.206;2022-12-18T05:19:39;10.50;64.70
32394;DHT22;18853;45.426;9.206;2022-12-18T05:22:04;10.50;64.80
32394;DHT22;18853;45.426;9.206;2022-12-18T05:24:30;10.50;65.10
32394;DHT22;18853;45.426;9.206;2022-12-18T05:26:56;10.50;65.10
32394;DHT22;18853;45.426;9.206;2022-12-18T05:29:22;10.60;65.00
32394;DHT22;18853;45.426;9.206;2022-12-18T05:31:47;10.60;65.00
32394;DHT22;18853;45.426;9.206;2022-12-18T05:34:13;10.50;64.90
32394;DHT22;18853;45.426;9.206;2022-12-18T05:36:38;10.50;65.00
32394;DHT22;18853;45.426;9.206;2022-12-18T05:39:04;10.50;65.10
32394;DHT22;18853;45.426;9.206;2022-12-18T05:41:30;10.40;65.10
32394;DHT22;18853;45.426;9.206;2022-12-18T05:43:55;10.40;65.30
32394;DHT22;18853;45.426;9.206;2022-12-18T05:46:21;10.50;65.10
32394;DHT22;18853;45.426;9.206;2022-12-18T05:48:47;10.50;65.20
32394;DHT22;18853;45.426;9.206;2022-12-18T05:51:16;10.50;65.00
32394;DHT22;18853;45.426;9.206;2022-12-18T05:53:42;10.60;65.00
32394;DHT22;18853;45.426;9.206;2022-12-18T05:56:11;10.50;64.90
32394;DHT22;18853;45.426;9.206;2022-12-18T05:58:37;10.50;64.70
32394;DHT22;18853;45.426;9.206;2022-12-18T06:03:33;10.60;64.90
32394;DHT22;18853;45.426;9.206;2022-12-18T06:05:59;10.40;65.00
32394;DHT22;18853;45.426;9.206;2022-12-18T06:08:25;10.40;65.30
32394;DHT22;18853;45.426;9.206;2022-12-18T06:10:51;10.40;65.40
32394;DHT22;18853;45.426;9.206;2022-12-18T06:13:19;10.40;65.40
32394;DHT22;18853;45.426;9.206;2022-12-18T06:15:44;10.50;65.30
32394;DHT22;18853;45.426;9.206;2022-12-18T06:18:10;10.30;65.30
32394;DHT22;18853;45.426;9.206;2022-12-18T06:20:36;10.30;65.70
32394;DHT22;18853;45.426;9.206;2022-12-18T06:23:02;10.30;65.80
32394;DHT22;18853;45.426;9.206;2022-12-18T06:25:28;10.40;65.60
32394;DHT22;18853;45.426;9.206;2022-12-18T06:27:54;10.40;65.50
32394;DHT22;18853;45.426;9.206;2022-12-18T06:30:20;10.40;65.40
32394;DHT22;18853;45.426;9.206;2022-12-18T06:32:47;10.40;65.40
32394;DHT22;18853;45.426;9.206;2022-12-18T06:35:13;10.40;65.40
32394;DHT22;18853;45.426;9.206;2022-12-18T06:37:38;10.40;65.40
32394;DHT22;18853;45.426;9.206;2022-12-18T06:40:05;10.40;65.40
32394;DHT22;18853;45.426;9.206;2022-12-18T06:42:31;10.40;65.40
32394;DHT22;18853;45.426;9.206;2022-12-18T06:44:57;10.50;65.40
32394;DHT22;18853;45.426;9.206;2022-12-18T06:47:23;10.50;65.20
32394;DHT22;18853;45.426;9.206;2022-12-18T06:49:48;10.60;64.90
32394;DHT22;18853;45.426;9.206;2022-12-18T06:52:14;10.60;64.80
32394;DHT22;18853;45.426;9.206;2022-12-18T06:54:40;10.50;64.90
32394;DHT22;18853;45.426;9.206;2022-12-18T06:57:05;10.50;65.30
32394;DHT22;18853;45.426;9.206;2022-12-18T06:59:31;10.50;65.40
32394;DHT22;18853;45.426;9.206;2022-12-18T07:01:57;10.50;65.20
32394;DHT22;18853;45.426;9.206;2022-12-18T07:04:28;10.50;65.00
32394;DHT22;18853;45.426;9.206;2022-12-18T07:06:53;10.60;65.00
32394;DHT22;18853;45.426;9.206;2022-12-18T07:09:19;10.50;64.90
32394;DHT22;18853;45.426;9.206;2022-12-18T07:11:45;10.60;64.90
32394;DHT22;18853;45.426;9.206;2022-12-18T07:14:10;10.60;64.80
32394;DHT22;18853;45.426;9.206;2022-12-18T07:16:36;10.60;64.70
32394;DHT22;18853;45.426;9.206;2022-12-18T07:19:02;10.50;64.80
32394;DHT22;18853;45.426;9.206;2022-12-18T07:21:27;10.50;65.00
32394;DHT22;18853;45.426;9.206;2022-12-18T07:23:53;10.50;65.00
32394;DHT22;18853;45.426;9.206;2022-12-18T07:26:20;10.50;64.90
32394;DHT22;18853;45.426;9.206;2022-12-18T07:28:47;10.60;64.80
32394;DHT22;18853;45.426;9.206;2022-12-18T07:31:15;10.60;64.90
32394;DHT22;18853;45.426;9.206;2022-12-18T07:33:41;10.60;64.70
32394;DHT22;18853;45.426;9.206;2022-12-18T07:36:08;10.60;64.30
32394;DHT22;18853;45.426;9.206;2022-12-18T07:38:35;10.50;64.40
32394;DHT22;18853;45.426;9.206;2022-12-18T07:41:19;10.50;64.50
32394;DHT22;18853;45.426;9.206;2022-12-18T07:43:46;10.50;64.80
32394;DHT22;18853;45.426;9.206;2022-12-18T07:46:12;10.40;65.00
32394;DHT22;18853;45.426;9.206;2022-12-18T07:48:43;10.40;65.10
32394;DHT22;18853;45.426;9.206;2022-12-18T07:51:10;10.40;64.90
32394;DHT22;18853;45.426;9.206;2022-12-18T07:53:36;10.40;64.90
32394;DHT22;18853;45.426;9.206;2022-12-18T07:56:07;10.50;65.00
32394;DHT22;18853;45.426;9.206;2022-12-18T07:58:34;10.50;65.00
32394;DHT22;18853;45.426;9.206;2022-12-18T08:01:08;10.50;64.90
32394;DHT22;18853;45.426;9.206;2022-12-18T08:03:34;10.50;64.90
32394;DHT22;18853;45.426;9.206;2022-12-18T08:06:04;10.50;65.00
32394;DHT22;18853;45.426;9.206;2022-12-18T08:08:32;10.40;65.20
32394;DHT22;18853;45.426;9.206;2022-12-18T08:10:58;10.40;65.30
32394;DHT22;18853;45.426;9.206;2022-12-18T08:13:24;10.40;65.10
32394;DHT22;18853;45.426;9.206;2022-12-18T08:16:02;10.40;65.20
32394;DHT22;18853;45.426;9.206;2022-12-18T08:18:28;10.30;65.30
32394;DHT22;18853;45.426;9.206;2022-12-18T08:20:55;10.30;65.40
32394;DHT22;18853;45.426;9.206;2022-12-18T08:23:21;10.30;65.50
32394;DHT22;18853;45.426;9.206;2022-12-18T08:25:47;10.40;65.30
32394;DHT22;18853;45.426;9.206;2022-12-18T08:28:13;10.40;65.10
32394;DHT22;18853;45.426;9.206;2022-12-18T08:30:40;10.40;65.20
32394;DHT22;18853;45.426;9.206;2022-12-18T08:33:06;10.40;65.30
32394;DHT22;18853;45.426;9.206;2022-12-18T08:35:35;10.40;65.40
32394;DHT22;18853;45.426;9.206;2022-12-18T08:38:02;10.40;65.40
32394;DHT22;18853;45.426;9.206;2022-12-18T08:40:29;10.40;65.40
32394;DHT22;18853;45.426;9.206;2022-12-18T08:42:54;10.40;65.50
32394;DHT22;18853;45.426;9.206;2022-12-18T08:45:39;10.40;65.60
32394;DHT22;18853;45.426;9.206;2022-12-18T08:48:04;10.30;65.80
32394;DHT22;18853;45.426;9.206;2022-12-18T08:50:30;10.40;65.90
32394;DHT22;18853;45.426;9.206;2022-12-18T08:52:56;10.50;65.60
32394;DHT22;18853;45.426;9.206;2022-12-18T08:55:22;10.50;65.40
32394;DHT22;18853;45.426;9.206;2022-12-18T08:57:50;10.50;65.40
32394;DHT22;18853;45.426;9.206;2022-12-18T09:00:16;10.50;65.40
32394;DHT22;18853;45.426;9.206;2022-12-18T09:02:42;10.60;65.30
32394;DHT22;18853;45.426;9.206;2022-12-18T09:05:08;10.60;65.40
32394;DHT22;18853;45.426;9.206;2022-12-18T09:07:34;10.50;64.80
32394;DHT22;18853;45.426;9.206;2022-12-18T09:09:59;10.50;65.20
32394;DHT22;18853;45.426;9.206;2022-12-18T09:12:25;10.50;65.20
32394;DHT22;18853;45.426;9.206;2022-12-18T09:14:51;10.50;65.20
32394;DHT22;18853;45.426;9.206;2022-12-18T09:17:17;10.60;65.20
32394;DHT22;18853;45.426;9.206;2022-12-18T09:19:42;10.60;65.00
32394;DHT22;18853;45.426;9.206;2022-12-18T09:22:09;10.60;65.00
32394;DHT22;18853;45.426;9.206;2022-12-18T09:24:35;10.50;65.00
32394;DHT22;18853;45.426;9.206;2022-12-18T09:27:01;10.60;65.30
32394;DHT22;18853;45.426;9.206;2022-12-18T09:29:26;10.50;65.60
32394;DHT22;18853;45.426;9.206;2022-12-18T09:31:52;10.50;65.50
32394;DHT22;18853;45.426;9.206;2022-12-18T09:34:18;10.50;65.40
32394;DHT22;18853;45.426;9.206;2022-12-18T09:36:46;10.50;65.70
32394;DHT22;18853;45.426;9.206;2022-12-18T09:39:12;10.50;65.80
32394;DHT22;18853;45.426;9.206;2022-12-18T09:41:57;10.60;65.60
32394;DHT22;18853;45.426;9.206;2022-12-18T09:44:38;10.60;65.40
32394;DHT22;18853;45.426;9.206;2022-12-18T09:47:27;10.70;65.60
32394;DHT22;18853;45.426;9.206;2022-12-18T09:52:55;10.70;65.20
32394;DHT22;18853;45.426;9.206;2022-12-18T09:55:37;10.60;65.50
32394;DHT22;18853;45.426;9.206;2022-12-18T10:00:45;10.70;65.90
32394;DHT22;18853;45.426;9.206;2022-12-18T10:03:13;10.70;65.60
32394;DHT22;18853;45.426;9.206;2022-12-18T10:08:42;10.70;65.60
32394;DHT22;18853;45.426;9.206;2022-12-18T10:27:47;10.90;65.50
32394;DHT22;18853;45.426;9.206;2022-12-18T10:30:16;10.90;65.40
32394;DHT22;18853;45.426;9.206;2022-12-18T10:32:42;10.90;65.10
32394;DHT22;18853;45.426;9.206;2022-12-18T10:35:19;10.90;65.10
32394;DHT22;18853;45.426;9.206;2022-12-18T10:46:40;11.00;64.80
32394;DHT22;18853;45.426;9.206;2022-12-18T10:49:29;10.90;65.00
32394;DHT22;18853;45.426;9.206;2022-12-18T10:52:24;11.00;65.00
32394;DHT22;18853;45.426;9.206;2022-12-18T10:54:56;11.00;64.90
32394;DHT22;18853;45.426;9.206;2022-12-18T10:57:34;10.90;64.90
32394;DHT22;18853;45.426;9.206;2022-12-18T11:00:21;11.00;65.00
32394;DHT22;18853;45.426;9.206;2022-12-18T11:02:48;11.00;64.90
32394;DHT22;18853;45.426;9.206;2022-12-18T11:05:31;11.10;64.90
32394;DHT22;18853;45.426;9.206;2022-12-18T11:07:58;11.10;64.50
32394;DHT22;18853;45.426;9.206;2022-12-18T11:10:37;11.10;64.50
32394;DHT22;18853;45.426;9.206;2022-12-18T11:15:36;11.10;64.80
32394;DHT22;18853;45.426;9.206;2022-12-18T11:18:14;11.10;64.80
32394;DHT22;18853;45.426;9.206;2022-12-18T11:20:41;11.20;64.80
32394;DHT22;18853;45.426;9.206;2022-12-18T11:23:12;11.20;64.50
32394;DHT22;18853;45.426;9.206;2022-12-18T11:25:39;11.30;64.50
32394;DHT22;18853;45.426;9.206;2022-12-18T11:36:29;11.30;63.90
32394;DHT22;18853;45.426;9.206;2022-12-18T11:38:59;11.30;64.30
32394;DHT22;18853;45.426;9.206;2022-12-18T11:41:39;11.30;64.50
32394;DHT22;18853;45.426;9.206;2022-12-18T11:44:28;11.60;65.20
32394;DHT22;18853;45.426;9.206;2022-12-18T11:47:36;11.50;63.90
32394;DHT22;18853;45.426;9.206;2022-12-18T11:50:00;11.60;63.50
32394;DHT22;18853;45.426;9.206;2022-12-18T11:52:33;11.40;63.40
32394;DHT22;18853;45.426;9.206;2022-12-18T11:55:10;11.50;63.40
32394;DHT22;18853;45.426;9.206;2022-12-18T11:57:49;11.40;63.20
32394;DHT22;18853;45.426;9.206;2022-12-18T12:00:20;11.40;63.50
32394;DHT22;18853;45.426;9.206;2022-12-18T12:05:44;11.50;62.80
32394;DHT22;18853;45.426;9.206;2022-12-18T12:21:24;11.40;63.30
32394;DHT22;18853;45.426;9.206;2022-12-18T12:26:43;11.50;62.50
32394;DHT22;18853;45.426;9.206;2022-12-18T12:32:45;11.50;62.70
32394;DHT22;18853;45.426;9.206;2022-12-18T12:40:18;11.50;62.70
32394;DHT22;18853;45.426;9.206;2022-12-18T12:42:50;11.50;62.80
32394;DHT22;18853;45.426;9.206;2022-12-18T12:45:41;11.50;62.90
32394;DHT22;18853;45.426;9.206;2022-12-18T12:48:35;11.50;63.00
32394;DHT22;18853;45.426;9.206;2022-12-18T12:51:03;11.50;62.90
32394;DHT22;18853;45.426;9.206;2022-12-18T12:53:35;11.60;62.90
32394;DHT22;18853;45.426;9.206;2022-12-18T12:56:01;11.60;62.80
32394;DHT22;18853;45.426;9.206;2022-12-18T13:06:37;11.60;62.30
32394;DHT22;18853;45.426;9.206;2022-12-18T13:09:03;11.70;62.70
32394;DHT22;18853;45.426;9.206;2022-12-18T13:11:37;11.60;62.60
32394;DHT22;18853;45.426;9.206;2022-12-18T13:14:24;11.70;62.40
32394;DHT22;18853;45.426;9.206;2022-12-18T13:16:51;11.70;62.30
32394;DHT22;18853;45.426;9.206;2022-12-18T13:19:26;11.60;62.50
32394;DHT22;18853;45.426;9.206;2022-12-18T13:21:56;11.70;62.50
32394;DHT22;18853;45.426;9.206;2022-12-18T13:24:27;11.60;62.70
32394;DHT22;18853;45.426;9.206;2022-12-18T13:26:56;11.60;62.50
32394;DHT22;18853;45.426;9.206;2022-12-18T13:29:44;11.60;62.60
32394;DHT22;18853;45.426;9.206;2022-12-18T13:32:22;11.70;62.40
32394;DHT22;18853;45.426;9.206;2022-12-18T13:34:48;11.60;62.80
32394;DHT22;18853;45.426;9.206;2022-12-18T13:37:42;11.60;62.90
32394;DHT22;18853;45.426;9.206;2022-12-18T13:48:51;11.50;63.20
32394;DHT22;18853;45.426;9.206;2022-12-18T13:51:19;11.50;63.30
32394;DHT22;18853;45.426;9.206;2022-12-18T13:56:30;11.50;63.40
32394;DHT22;18853;45.426;9.206;2022-12-18T14:01:51;11.50;63.20
32394;DHT22;18853;45.426;9.206;2022-12-18T14:04:35;11.50;63.20
32394;DHT22;18853;45.426;9.206;2022-12-18T14:07:02;11.50;63.30
32394;DHT22;18853;45.426;9.206;2022-12-18T14:09:31;11.40;63.70
32394;DHT22;18853;45.426;9.206;2022-12-18T14:12:00;11.40;63.40
32394;DHT22;18853;45.426;9.206;2022-12-18T14:14:46;11.40;63.70
32394;DHT22;18853;45.426;9.206;2022-12-18T14:17:13;11.40;63.70
32394;DHT22;18853;45.426;9.206;2022-12-18T14:19:45;11.40;63.50
32394;DHT22;18853;45.426;9.206;2022-12-18T14:22:20;11.50;63.40
32394;DHT22;18853;45.426;9.206;2022-12-18T14:24:47;11.60;63.40
32394;DHT22;18853;45.426;9.206;2022-12-18T14:27:25;11.60;63.30
32394;DHT22;18853;45.426;9.206;2022-12-18T14:29:50;11.60;63.00
32394;DHT22;18853;45.426;9.206;2022-12-18T14:32:18;11.60;63.00
32394;DHT22;18853;45.426;9.206;2022-12-18T14:34:54;11.60;62.80
32394;DHT22;18853;45.426;9.206;2022-12-18T14:37:22;11.50;62.60
32394;DHT22;18853;45.426;9.206;2022-12-18T14:39:56;11.50;63.00
32394;DHT22;18853;45.426;9.206;2022-12-18T14:42:24;11.50;62.90
32394;DHT22;18853;45.426;9.206;2022-12-18T14:47:58;11.50;62.60
32394;DHT22;18853;45.426;9.206;2022-12-18T14:50:24;11.40;63.00
32394;DHT22;18853;45.426;9.206;2022-12-18T14:52:50;11.40;63.00
32394;DHT22;18853;45.426;9.206;2022-12-18T14:55:20;11.40;62.90
32394;DHT22;18853;45.426;9.206;2022-12-18T14:57:50;11.30;62.70
32394;DHT22;18853;45.426;9.206;2022-12-18T15:00:19;11.30;62.80
32394;DHT22;18853;45.426;9.206;2022-12-18T15:02:54;11.30;63.00
32394;DHT22;18853;45.426;9.206;2022-12-18T15:05:25;11.30;63.00
32394;DHT22;18853;45.426;9.206;2022-12-18T15:07:54;11.20;63.30
32394;DHT22;18853;45.426;9.206;2022-12-18T15:10:27;11.10;63.40
32394;DHT22;18853;45.426;9.206;2022-12-18T15:33:42;11.10;63.30
32394;DHT22;18853;45.426;9.206;2022-12-18T15:36:14;11.00;63.20
32394;DHT22;18853;45.426;9.206;2022-12-18T15:38:40;11.00;63.20
32394;DHT22;18853;45.426;9.206;2022-12-18T15:41:27;11.00;63.10
32394;DHT22;18853;45.426;9.206;2022-12-18T15:43:53;11.10;63.00
32394;DHT22;18853;45.426;9.206;2022-12-18T15:46:20;11.00;62.90
32394;DHT22;18853;45.426;9.206;2022-12-18T15:48:48;11.10;63.00
32394;DHT22;18853;45.426;9.206;2022-12-18T15:51:19;11.00;63.00
32394;DHT22;18853;45.426;9.206;2022-12-18T15:53:47;11.10;63.40
32394;DHT22;18853;45.426;9.206;2022-12-18T15:56:14;11.10;62.70
32394;DHT22;18853;45.426;9.206;2022-12-18T15:59:00;11.10;62.60
32394;DHT22;18853;45.426;9.206;2022-12-18T16:01:28;11.10;63.00
32394;DHT22;18853;45.426;9.206;2022-12-18T16:03:54;11.20;62.90
32394;DHT22;18853;45.426;9.206;2022-12-18T16:06:21;11.00;62.70
32394;DHT22;18853;45.426;9.206;2022-12-18T16:08:46;11.00;62.90
32394;DHT22;18853;45.426;9.206;2022-12-18T16:11:29;11.20;63.40
32394;DHT22;18853;45.426;9.206;2022-12-18T16:16:40;11.10;63.00
32394;DHT22;18853;45.426;9.206;2022-12-18T16:19:07;11.10;62.90
32394;DHT22;18853;45.426;9.206;2022-12-18T16:21:33;11.10;62.70
32394;DHT22;18853;45.426;9.206;2022-12-18T16:23:58;11.10;62.50
32394;DHT22;18853;45.426;9.206;2022-12-18T16:26:24;11.00;62.60
32394;DHT22;18853;45.426;9.206;2022-12-18T16:28:50;11.00;62.60
32394;DHT22;18853;45.426;9.206;2022-12-18T16:31:15;11.00;62.50
32394;DHT22;18853;45.426;9.206;2022-12-18T16:33:41;11.10;62.60
32394;DHT22;18853;45.426;9.206;2022-12-18T16:36:07;11.10;62.50
32394;DHT22;18853;45.426;9.206;2022-12-18T16:38:33;11.10;62.50
32394;DHT22;18853;45.426;9.206;2022-12-18T16:40:58;11.00;62.50
32394;DHT22;18853;45.426;9.206;2022-12-18T16:43:43;11.00;62.50
32394;DHT22;18853;45.426;9.206;2022-12-18T16:46:08;11.00;62.60
32394;DHT22;18853;45.426;9.206;2022-12-18T16:48:34;11.00;62.80
32394;DHT22;18853;45.426;9.206;2022-12-18T16:51:01;11.00;62.80
32394;DHT22;18853;45.426;9.206;2022-12-18T16:53:28;10.90;62.90
32394;DHT22;18853;45.426;9.206;2022-12-18T16:55:54;10.90;63.00
32394;DHT22;18853;45.426;9.206;2022-12-18T16:58:20;10.90;62.90
32394;DHT22;18853;45.426;9.206;2022-12-18T17:00:46;10.80;63.00
32394;DHT22;18853;45.426;9.206;2022-12-18T17:03:11;10.80;62.80
32394;DHT22;18853;45.426;9.206;2022-12-18T17:05:37;10.80;62.70
32394;DHT22;18853;45.426;9.206;2022-12-18T17:08:03;10.80;62.80
32394;DHT22;18853;45.426;9.206;2022-12-18T17:10:29;10.80;63.10
32394;DHT22;18853;45.426;9.206;2022-12-18T17:12:55;10.80;62.80
32394;DHT22;18853;45.426;9.206;2022-12-18T17:15:20;10.80;62.70
32394;DHT22;18853;45.426;9.206;2022-12-18T17:17:46;10.80;63.00
32394;DHT22;18853;45.426;9.206;2022-12-18T17:20:12;10.80;63.20
32394;DHT22;18853;45.426;9.206;2022-12-18T17:22:37;10.80;63.30
32394;DHT22;18853;45.426;9.206;2022-12-18T17:25:03;10.80;63.30
32394;DHT22;18853;45.426;9.206;2022-12-18T17:27:29;10.80;63.20
32394;DHT22;18853;45.426;9.206;2022-12-18T17:29:55;10.80;62.90
32394;DHT22;18853;45.426;9.206;2022-12-18T17:32:20;10.90;63.10
32394;DHT22;18853;45.426;9.206;2022-12-18T17:34:46;10.90;63.10
32394;DHT22;18853;45.426;9.206;2022-12-18T17:37:12;10.90;63.10
32394;DHT22;18853;45.426;9.206;2022-12-18T17:39:38;10.80;63.30
32394;DHT22;18853;45.426;9.206;2022-12-18T17:42:04;10.80;63.30
32394;DHT22;18853;45.426;9.206;2022-12-18T17:44:30;10.90;63.40
32394;DHT22;18853;45.426;9.206;2022-12-18T17:46:55;10.80;63.30
32394;DHT22;18853;45.426;9.206;2022-12-18T17:49:21;10.80;63.50
32394;DHT22;18853;45.426;9.206;2022-12-18T17:51:47;10.80;63.50
32394;DHT22;18853;45.426;9.206;2022-12-18T17:54:13;10.80;63.30
32394;DHT22;18853;45.426;9.206;2022-12-18T17:56:39;10.90;63.40
32394;DHT22;18853;45.426;9.206;2022-12-18T17:59:05;10.90;63.20
32394;DHT22;18853;45.426;9.206;2022-12-18T18:01:31;10.90;63.20
32394;DHT22;18853;45.426;9.206;2022-12-18T18:03:57;10.90;63.10
32394;DHT22;18853;45.426;9.206;2022-12-18T18:06:24;10.90;62.70
32394;DHT22;18853;45.426;9.206;2022-12-18T18:08:51;10.90;62.90
32394;DHT22;18853;45.426;9.206;2022-12-18T18:11:19;10.80;63.20
32394;DHT22;18853;45.426;9.206;2022-12-18T18:14:19;10.90;63.40
32394;DHT22;18853;45.426;9.206;2022-12-18T18:16:47;10.90;63.50